createdAt,value
2023-04-04T00:00:49.377Z,53.49
2023-04-04T00:01:49.671Z,53.38
2023-04-04T00:02:50.069Z,53.49
2023-04-04T00:03:50.479Z,53.36
2023-04-04T00:04:50.542Z,53.38
2023-04-04T00:05:50.855Z,53.69
2023-04-04T00:06:51.126Z,54.32
2023-04-04T00:07:51.450Z,54.21
2023-04-04T00:08:51.758Z,53.88
2023-04-04T00:09:52.038Z,54.00
2023-04-04T00:10:52.503Z,54.11
2023-04-04T00:11:52.916Z,54.21
2023-04-04T00:12:53.012Z,53.80
2023-04-04T00:13:54.191Z,53.59
2023-04-04T00:14:53.634Z,53.90
2023-04-04T00:15:54.009Z,54.11
2023-04-04T00:16:54.166Z,53.90
2023-04-04T00:17:54.423Z,54.11
2023-04-04T00:18:54.719Z,53.80
2023-04-04T00:19:54.963Z,54.00
2023-04-04T00:20:55.363Z,54.32
2023-04-04T00:21:55.506Z,54.00
2023-04-04T00:22:55.876Z,53.72
2023-04-04T00:23:56.029Z,53.80
2023-04-04T00:24:56.392Z,53.90
2023-04-04T00:25:56.688Z,54.13
2023-04-04T00:26:56.834Z,54.21
2023-04-04T00:27:57.131Z,54.63
2023-04-04T00:28:57.457Z,54.52
2023-04-04T00:29:57.658Z,54.63
2023-04-04T00:30:58.181Z,54.32
2023-04-04T00:31:58.320Z,54.42
2023-04-04T00:32:58.562Z,54.42
2023-04-04T00:33:58.770Z,54.42
2023-04-04T00:34:59.086Z,54.32
2023-04-04T00:35:59.433Z,54.21
2023-04-04T00:36:59.690Z,54.00
2023-04-04T00:37:59.974Z,53.49
2023-04-04T00:39:00.289Z,53.59
2023-04-04T00:40:00.586Z,53.59
2023-04-04T00:41:00.877Z,53.80
2023-04-04T00:42:01.200Z,53.69
2023-04-04T00:43:01.489Z,53.90
2023-04-04T00:44:01.763Z,53.80
2023-04-04T00:45:02.046Z,53.80
2023-04-04T00:46:02.314Z,53.90
2023-04-04T00:47:02.620Z,53.80
2023-04-04T00:48:03.061Z,53.69
2023-04-04T00:49:03.189Z,53.90
2023-04-04T00:50:03.377Z,54.21
2023-04-04T00:51:03.736Z,54.21
2023-04-04T00:52:04.053Z,54.11
2023-04-04T00:53:04.241Z,54.34
2023-04-04T00:54:04.527Z,54.24
2023-04-04T00:55:04.876Z,54.13
2023-04-04T00:56:05.192Z,54.24
2023-04-04T00:57:05.532Z,54.44
2023-04-04T00:58:05.774Z,54.86
2023-04-04T00:59:06.173Z,54.86
2023-04-04T01:00:06.486Z,54.96
2023-04-04T01:01:06.860Z,54.96
2023-04-04T01:02:07.096Z,54.75
2023-04-04T01:03:07.427Z,54.79
2023-04-04T01:04:07.793Z,54.75
2023-04-04T01:05:07.965Z,54.75
2023-04-04T01:06:08.190Z,54.79
2023-04-04T01:07:08.531Z,54.99
2023-04-04T01:08:08.764Z,54.99
2023-04-04T01:09:09.105Z,54.99
2023-04-04T01:10:09.388Z,54.99
2023-04-04T01:11:09.704Z,54.99
2023-04-04T01:12:09.942Z,54.99
2023-04-04T01:13:10.309Z,55.30
2023-04-04T01:14:10.488Z,55.20
2023-04-04T01:15:10.850Z,54.89
2023-04-04T01:16:11.175Z,54.79
2023-04-04T01:17:11.465Z,54.79
2023-04-04T01:18:11.948Z,54.68
2023-04-04T01:19:12.008Z,54.58
2023-04-04T01:20:12.284Z,54.89
2023-04-04T01:21:12.607Z,54.89
2023-04-04T01:22:12.838Z,54.99
2023-04-04T01:23:13.180Z,54.89
2023-04-04T01:24:13.458Z,55.02
2023-04-04T01:25:13.735Z,54.99
2023-04-04T01:26:13.978Z,54.99
2023-04-04T01:27:14.279Z,55.22
2023-04-04T01:28:14.544Z,55.30
2023-04-04T01:29:14.941Z,55.22
2023-04-04T01:30:15.197Z,55.02
2023-04-04T01:31:15.712Z,54.81
2023-04-04T01:32:15.737Z,54.81
2023-04-04T01:33:15.997Z,55.02
2023-04-04T01:34:16.333Z,55.02
2023-04-04T01:35:16.583Z,55.10
2023-04-04T01:36:17.199Z,55.12
2023-04-04T01:37:17.553Z,55.02
2023-04-04T01:38:17.526Z,55.33
2023-04-04T01:39:17.807Z,55.43
2023-04-04T01:40:18.054Z,55.54
2023-04-04T01:41:18.323Z,55.43
2023-04-04T01:42:18.569Z,55.22
2023-04-04T01:43:18.895Z,55.22
2023-04-04T01:44:19.232Z,55.54
2023-04-04T01:45:19.385Z,55.54
2023-04-04T01:46:19.731Z,55.54
2023-04-04T01:47:20.004Z,55.74
2023-04-04T01:48:20.263Z,55.74
2023-04-04T01:49:20.631Z,55.95
2023-04-04T01:50:20.950Z,56.16
2023-04-04T01:51:21.203Z,56.57
2023-04-04T01:52:21.603Z,56.91
2023-04-04T01:53:21.860Z,56.78
2023-04-04T01:54:22.146Z,56.70
2023-04-04T01:55:22.484Z,56.70
2023-04-04T01:56:22.728Z,56.81
2023-04-04T01:57:23.058Z,56.81
2023-04-04T01:58:23.309Z,56.91
2023-04-04T01:59:23.717Z,57.22
2023-04-04T02:00:23.947Z,57.53
2023-04-04T02:01:24.217Z,57.67
2023-04-04T02:02:24.632Z,57.64
2023-04-04T02:03:24.823Z,57.67
2023-04-04T02:04:25.194Z,57.64
2023-04-04T02:05:25.453Z,57.64
2023-04-04T02:06:25.764Z,57.74
2023-04-04T02:07:26.079Z,57.87
2023-04-04T02:08:26.379Z,57.87
2023-04-04T02:09:26.682Z,57.77
2023-04-04T02:10:26.967Z,57.67
2023-04-04T02:11:27.250Z,57.77
2023-04-04T02:12:27.619Z,57.87
2023-04-04T02:13:27.891Z,58.08
2023-04-04T02:14:28.137Z,58.18
2023-04-04T02:15:28.532Z,58.29
2023-04-04T02:16:28.813Z,58.18
2023-04-04T02:17:29.111Z,58.29
2023-04-04T02:18:29.541Z,58.18
2023-04-04T02:19:29.657Z,58.08
2023-04-04T02:20:29.889Z,58.18
2023-04-04T02:21:30.269Z,58.29
2023-04-04T02:22:30.590Z,58.50
2023-04-04T02:23:30.874Z,58.29
2023-04-04T02:24:31.206Z,57.98
2023-04-04T02:25:31.546Z,58.29
2023-04-04T02:26:31.784Z,58.39
2023-04-04T02:27:32.120Z,58.50
2023-04-04T02:28:32.372Z,58.50
2023-04-04T02:29:32.749Z,58.50
2023-04-04T02:30:33.022Z,58.60
2023-04-04T02:31:33.335Z,58.60
2023-04-04T02:32:33.577Z,58.70
2023-04-04T02:33:33.867Z,58.91
2023-04-04T02:34:34.182Z,58.91
2023-04-04T02:35:34.301Z,58.83
2023-04-04T02:36:34.674Z,58.73
2023-04-04T02:37:34.897Z,58.70
2023-04-04T02:38:35.251Z,58.39
2023-04-04T02:39:35.515Z,58.29
2023-04-04T02:40:35.833Z,58.39
2023-04-04T02:41:36.169Z,58.50
2023-04-04T02:42:36.514Z,58.29
2023-04-04T02:43:36.723Z,58.42
2023-04-04T02:44:37.079Z,58.21
2023-04-04T02:45:41.352Z,58.31
2023-04-04T02:46:37.630Z,58.42
2023-04-04T02:47:37.858Z,58.73
2023-04-04T02:48:38.183Z,58.73
2023-04-04T02:49:38.461Z,58.62
2023-04-04T02:50:39.362Z,58.62
2023-04-04T02:51:39.039Z,58.73
2023-04-04T02:52:39.323Z,59.04
2023-04-04T02:53:39.662Z,59.35
2023-04-04T02:54:39.935Z,59.35
2023-04-04T02:55:40.152Z,59.04
2023-04-04T02:56:40.429Z,59.04
2023-04-04T02:57:40.791Z,59.14
2023-04-04T02:58:41.667Z,59.25
2023-04-04T02:59:41.351Z,59.45
2023-04-04T03:00:42.055Z,59.77
2023-04-04T03:01:41.950Z,59.66
2023-04-04T03:02:42.368Z,59.77
2023-04-04T03:03:42.602Z,59.90
2023-04-04T03:04:42.876Z,60.11
2023-04-04T03:05:43.182Z,60.00
2023-04-04T03:06:43.445Z,59.69
2023-04-04T03:07:43.755Z,59.69
2023-04-04T03:08:44.049Z,59.59
2023-04-04T03:09:44.380Z,59.59
2023-04-04T03:10:44.720Z,59.82
2023-04-04T03:11:45.005Z,59.93
2023-04-04T03:12:45.278Z,60.14
2023-04-04T03:13:45.555Z,60.35
2023-04-04T03:14:45.852Z,60.03
2023-04-04T03:15:47.440Z,60.03
2023-04-04T03:16:46.469Z,60.03
2023-04-04T03:17:47.800Z,60.14
2023-04-04T03:18:47.209Z,60.35
2023-04-04T03:19:47.305Z,60.66
2023-04-04T03:20:47.745Z,60.76
2023-04-04T03:21:47.892Z,60.76
2023-04-04T03:22:48.251Z,60.86
2023-04-04T03:23:49.131Z,60.73
2023-04-04T03:24:48.806Z,60.55
2023-04-04T03:25:49.167Z,60.66
2023-04-04T03:26:53.290Z,60.63
2023-04-04T03:27:49.817Z,60.35
2023-04-04T03:28:50.102Z,60.31
2023-04-04T03:29:50.397Z,59.82
2023-04-04T03:30:50.661Z,59.30
2023-04-04T03:31:51.061Z,59.30
2023-04-04T03:32:51.278Z,59.48
2023-04-04T03:33:51.571Z,59.41
2023-04-04T03:34:51.826Z,59.41
2023-04-04T03:35:52.247Z,59.30
2023-04-04T03:36:52.437Z,59.20
2023-04-04T03:37:52.901Z,58.89
2023-04-04T03:38:53.064Z,58.78
2023-04-04T03:39:53.342Z,58.68
2023-04-04T03:40:53.687Z,58.89
2023-04-04T03:41:53.788Z,58.89
2023-04-04T03:42:54.077Z,58.99
2023-04-04T03:43:54.357Z,59.51
2023-04-04T03:44:54.630Z,60.55
2023-04-04T03:45:55.052Z,60.55
2023-04-04T03:46:55.174Z,60.55
2023-04-04T03:47:55.572Z,60.35
2023-04-04T03:48:55.715Z,60.14
2023-04-04T03:49:55.996Z,60.03
2023-04-04T03:50:56.222Z,60.35
2023-04-04T03:51:56.571Z,60.55
2023-04-04T03:52:56.847Z,60.55
2023-04-04T03:53:57.172Z,60.45
2023-04-04T03:54:57.432Z,60.35
2023-04-04T03:55:58.034Z,60.35
2023-04-04T03:56:58.653Z,60.35
2023-04-04T03:57:58.255Z,60.45
2023-04-04T03:58:58.661Z,60.55
2023-04-04T03:59:58.924Z,60.76
2023-04-04T04:00:59.279Z,60.86
2023-04-04T04:01:59.485Z,61.07
2023-04-04T04:02:59.944Z,60.76
2023-04-04T04:04:00.234Z,60.76
2023-04-04T04:05:00.383Z,60.76
2023-04-04T04:06:00.651Z,60.76
2023-04-04T04:07:00.976Z,60.89
2023-04-04T04:08:01.247Z,61.00
2023-04-04T04:09:01.566Z,61.10
2023-04-04T04:10:01.904Z,61.10
2023-04-04T04:11:02.102Z,61.00
2023-04-04T04:12:02.482Z,61.52
2023-04-04T04:13:02.792Z,61.93
2023-04-04T04:14:03.156Z,62.04
2023-04-04T04:15:03.460Z,62.04
2023-04-04T04:16:03.985Z,62.04
2023-04-04T04:17:04.053Z,62.04
2023-04-04T04:18:04.341Z,62.14
2023-04-04T04:19:04.557Z,62.35
2023-04-04T04:20:04.800Z,62.35
2023-04-04T04:21:05.187Z,62.24
2023-04-04T04:22:05.374Z,62.14
2023-04-04T04:23:05.529Z,61.93
2023-04-04T04:24:06.021Z,61.93
2023-04-04T04:25:06.141Z,62.04
2023-04-04T04:26:06.478Z,61.72
2023-04-04T04:27:06.725Z,61.93
2023-04-04T04:28:06.995Z,61.93
2023-04-04T04:29:07.206Z,61.52
2023-04-04T04:30:07.504Z,61.41
2023-04-04T04:31:07.839Z,61.21
2023-04-04T04:32:08.041Z,61.21
2023-04-04T04:33:12.292Z,61.21
2023-04-04T04:34:08.644Z,61.21
2023-04-04T04:35:08.818Z,61.21
2023-04-04T04:36:09.212Z,61.00
2023-04-04T04:37:09.383Z,61.10
2023-04-04T04:38:09.808Z,60.58
2023-04-04T04:39:10.063Z,60.27
2023-04-04T04:40:10.231Z,61.52
2023-04-04T04:41:10.457Z,61.00
2023-04-04T04:42:10.793Z,61.10
2023-04-04T04:43:11.042Z,61.41
2023-04-04T04:44:11.727Z,61.41
2023-04-04T04:45:11.812Z,61.10
2023-04-04T04:46:11.860Z,61.31
2023-04-04T04:47:12.159Z,61.93
2023-04-04T04:48:12.506Z,62.04
2023-04-04T04:49:12.786Z,61.93
2023-04-04T04:50:13.168Z,61.93
2023-04-04T04:51:13.428Z,62.14
2023-04-04T04:52:13.654Z,62.24
2023-04-04T04:53:13.919Z,61.83
2023-04-04T04:54:14.147Z,61.62
2023-04-04T04:55:14.737Z,61.10
2023-04-04T04:56:14.817Z,60.68
2023-04-04T04:57:15.073Z,60.47
2023-04-04T04:58:15.957Z,60.06
2023-04-04T04:59:15.765Z,60.06
2023-04-04T05:00:15.891Z,59.95
2023-04-04T05:01:16.279Z,59.95
2023-04-04T05:02:16.473Z,59.75
2023-04-04T05:03:16.726Z,59.75
2023-04-04T05:04:17.016Z,59.85
2023-04-04T05:05:17.450Z,59.75
2023-04-04T05:06:17.563Z,59.44
2023-04-04T05:07:17.807Z,59.54
2023-04-04T05:08:18.033Z,59.64
2023-04-04T05:09:18.504Z,59.54
2023-04-04T05:10:18.770Z,59.85
2023-04-04T05:11:19.036Z,59.64
2023-04-04T05:12:19.307Z,59.85
2023-04-04T05:13:19.480Z,60.06
2023-04-04T05:14:19.749Z,59.95
2023-04-04T05:15:20.091Z,59.93
2023-04-04T05:16:20.387Z,60.35
2023-04-04T05:17:20.635Z,60.76
2023-04-04T05:18:20.841Z,61.07
2023-04-04T05:19:21.231Z,61.18
2023-04-04T05:20:21.477Z,61.00
2023-04-04T05:21:21.689Z,61.07
2023-04-04T05:22:21.927Z,61.10
2023-04-04T05:23:22.204Z,61.62
2023-04-04T05:24:22.493Z,61.41
2023-04-04T05:25:22.728Z,61.41
2023-04-04T05:26:23.017Z,61.72
2023-04-04T05:27:23.167Z,61.62
2023-04-04T05:28:23.529Z,61.52
2023-04-04T05:29:23.892Z,61.52
2023-04-04T05:30:24.158Z,61.52
2023-04-04T05:31:24.429Z,61.83
2023-04-04T05:32:24.731Z,62.14
2023-04-04T05:33:25.002Z,61.90
2023-04-04T05:34:25.227Z,61.93
2023-04-04T05:35:25.535Z,62.35
2023-04-04T05:36:25.778Z,62.24
2023-04-04T05:37:26.110Z,62.14
2023-04-04T05:38:26.276Z,62.04
2023-04-04T05:39:26.475Z,61.93
2023-04-04T05:40:26.797Z,61.93
2023-04-04T05:41:27.203Z,62.04
2023-04-04T05:42:27.398Z,61.93
2023-04-04T05:43:27.645Z,62.04
2023-04-04T05:44:28.808Z,62.04
2023-04-04T05:45:29.246Z,61.93
2023-04-04T05:46:28.923Z,61.83
2023-04-04T05:47:30.711Z,61.62
2023-04-04T05:48:29.002Z,61.49
2023-04-04T05:49:29.274Z,61.28
2023-04-04T05:50:29.455Z,61.07
2023-04-04T05:51:29.809Z,60.86
2023-04-04T05:52:30.067Z,60.55
2023-04-04T05:53:30.260Z,60.45
2023-04-04T05:54:30.557Z,60.31
2023-04-04T05:55:30.820Z,60.24
2023-04-04T05:56:31.073Z,59.80
2023-04-04T05:57:31.354Z,59.72
2023-04-04T05:58:31.573Z,59.17
2023-04-04T05:59:31.914Z,58.76
2023-04-04T06:00:32.113Z,58.65
2023-04-04T06:01:32.340Z,58.76
2023-04-04T06:02:32.653Z,58.97
2023-04-04T06:03:32.953Z,58.76
2023-04-04T06:04:33.078Z,58.65
2023-04-04T06:05:33.532Z,58.86
2023-04-04T06:06:33.785Z,58.65
2023-04-04T06:07:34.083Z,58.76
2023-04-04T06:08:50.298Z,58.97
2023-04-04T06:09:35.555Z,58.76
2023-04-04T06:10:34.801Z,58.86
2023-04-04T06:11:35.032Z,58.65
2023-04-04T06:12:35.425Z,58.65
2023-04-04T06:13:35.606Z,58.54
2023-04-04T06:14:35.962Z,58.44
2023-04-04T06:15:36.204Z,58.42
2023-04-04T06:16:36.528Z,58.11
2023-04-04T06:17:36.929Z,58.00
2023-04-04T06:18:37.199Z,58.11
2023-04-04T06:19:37.389Z,58.21
2023-04-04T06:20:38.017Z,58.11
2023-04-04T06:21:38.023Z,57.48
2023-04-04T06:22:38.299Z,57.48
2023-04-04T06:23:38.505Z,57.24
2023-04-04T06:24:38.867Z,57.14
2023-04-04T06:25:39.228Z,56.62
2023-04-04T06:26:39.458Z,56.62
2023-04-04T06:27:39.704Z,56.21
2023-04-04T06:28:39.948Z,56.23
2023-04-04T06:29:40.134Z,56.23
2023-04-04T06:30:40.729Z,56.13
2023-04-04T06:31:40.805Z,56.34
2023-04-04T06:32:41.004Z,56.10
2023-04-04T06:33:41.225Z,56.34
2023-04-04T06:34:41.474Z,56.44
2023-04-04T06:35:41.795Z,56.41
2023-04-04T06:36:42.044Z,56.00
2023-04-04T06:37:42.219Z,55.87
2023-04-04T06:38:43.478Z,55.46
2023-04-04T06:39:42.836Z,55.46
2023-04-04T06:40:43.078Z,54.91
2023-04-04T06:41:43.487Z,54.60
2023-04-04T06:42:47.787Z,54.50
2023-04-04T06:43:43.946Z,54.37
2023-04-04T06:44:44.411Z,54.37
2023-04-04T06:45:44.596Z,54.03
2023-04-04T06:46:44.910Z,53.61
2023-04-04T06:47:45.289Z,53.61
2023-04-04T06:48:45.464Z,53.20
2023-04-04T06:49:45.986Z,53.30
2023-04-04T06:50:46.111Z,53.30
2023-04-04T06:51:46.425Z,53.41
2023-04-04T06:52:52.432Z,53.17
2023-04-04T06:53:47.811Z,53.17
2023-04-04T06:54:48.491Z,52.37
2023-04-04T06:55:47.480Z,52.79
2023-04-04T06:56:48.685Z,52.69
2023-04-04T06:57:48.011Z,52.87
2023-04-04T06:58:48.358Z,52.56
2023-04-04T06:59:48.568Z,52.76
2023-04-04T07:00:49.672Z,52.74
2023-04-04T07:01:50.377Z,52.33
2023-04-04T07:02:50.946Z,51.91
2023-04-04T07:03:51.064Z,51.78
2023-04-04T07:04:51.276Z,52.01
2023-04-04T07:05:50.334Z,52.12
2023-04-04T07:06:51.358Z,52.33
2023-04-04T07:07:51.940Z,51.47
2023-04-04T07:08:53.224Z,51.57
2023-04-04T07:09:51.913Z,51.47
2023-04-04T07:10:53.675Z,51.55
2023-04-04T07:11:52.004Z,51.21
2023-04-04T07:12:52.476Z,50.70
2023-04-04T07:13:53.209Z,50.80
2023-04-04T07:14:54.713Z,50.70
2023-04-04T07:15:53.562Z,50.16
2023-04-04T07:16:55.233Z,50.16
2023-04-04T07:17:55.834Z,50.26
2023-04-04T07:18:54.027Z,49.85
2023-04-04T07:19:54.260Z,49.72
2023-04-04T07:20:54.794Z,49.41
2023-04-04T07:21:56.397Z,49.31
2023-04-04T07:22:55.542Z,49.13
2023-04-04T07:23:55.530Z,49.87
2023-04-04T07:24:56.235Z,50.05
2023-04-04T07:25:56.154Z,50.03
2023-04-04T07:26:56.419Z,49.70
2023-04-04T07:28:09.632Z,48.77
2023-04-04T07:28:59.187Z,48.05
2023-04-04T07:29:57.950Z,47.45
2023-04-04T07:30:58.743Z,47.55
2023-04-04T07:31:58.228Z,47.55
2023-04-04T07:32:58.951Z,47.94
2023-04-04T07:33:59.590Z,47.42
2023-04-04T07:34:58.437Z,46.77
2023-04-04T07:36:00.581Z,46.12
2023-04-04T07:36:59.951Z,46.12
2023-04-04T07:37:59.874Z,45.63
2023-04-04T07:39:00.341Z,46.23
2023-04-04T07:40:02.896Z,45.09
2023-04-04T07:41:01.432Z,44.86
2023-04-04T07:42:01.802Z,44.70
2023-04-04T07:43:00.686Z,44.43
2023-04-04T07:44:00.890Z,44.53
2023-04-04T07:45:01.144Z,45.28
2023-04-04T07:46:01.423Z,45.69
2023-04-04T07:47:09.311Z,45.67
2023-04-04T07:48:02.909Z,45.54
2023-04-04T07:49:02.199Z,45.42
2023-04-04T07:50:03.392Z,44.90
2023-04-04T07:51:02.767Z,44.37
2023-04-04T07:52:02.944Z,44.37
2023-04-04T07:53:03.339Z,43.44
2023-04-04T07:54:04.505Z,43.46
2023-04-04T07:55:03.926Z,43.66
2023-04-04T07:56:04.282Z,43.32
2023-04-04T07:57:06.782Z,42.37
2023-04-04T07:58:05.001Z,42.06
2023-04-04T07:59:05.852Z,41.83
2023-04-04T08:00:05.269Z,41.94
2023-04-04T08:01:05.481Z,42.02
2023-04-04T08:02:07.426Z,41.47
2023-04-04T08:03:08.115Z,41.35
2023-04-04T08:04:06.734Z,41.35
2023-04-04T08:05:07.766Z,40.64
2023-04-04T08:06:07.135Z,40.64
2023-04-04T08:07:07.452Z,40.83
2023-04-04T08:08:07.561Z,40.69
2023-04-04T08:09:07.832Z,39.85
2023-04-04T08:10:08.058Z,39.32
2023-04-04T08:11:08.317Z,38.51
2023-04-04T08:12:08.568Z,38.90
2023-04-04T08:13:09.758Z,38.68
2023-04-04T08:14:09.794Z,38.07
2023-04-04T08:15:09.573Z,37.86
2023-04-04T08:16:09.768Z,37.45
2023-04-04T08:17:09.905Z,37.45
2023-04-04T08:18:10.329Z,37.35
2023-04-04T08:19:10.662Z,37.43
2023-04-04T08:20:11.041Z,37.02
2023-04-04T08:21:11.345Z,36.61
2023-04-04T08:22:11.714Z,36.96
2023-04-04T08:23:12.383Z,38.45
2023-04-04T08:24:13.163Z,38.45
2023-04-04T08:25:13.327Z,38.76
2023-04-04T08:26:12.538Z,38.89
2023-04-04T08:27:13.629Z,39.31
2023-04-04T08:28:13.050Z,38.84
2023-04-04T08:29:13.404Z,38.10
2023-04-04T08:30:13.634Z,37.96
2023-04-04T08:31:13.908Z,37.13
2023-04-04T08:32:14.201Z,36.72
2023-04-04T08:33:14.781Z,36.80
2023-04-04T08:34:14.720Z,36.07
2023-04-04T08:35:14.904Z,36.07
2023-04-04T08:36:15.349Z,35.88
2023-04-04T08:37:16.923Z,36.15
2023-04-04T08:38:16.595Z,35.40
2023-04-04T08:39:16.050Z,34.58
2023-04-04T08:40:16.381Z,34.34
2023-04-04T08:41:16.612Z,36.44
2023-04-04T08:42:17.277Z,36.72
2023-04-04T08:43:17.154Z,36.21
2023-04-04T08:44:17.506Z,36.55
2023-04-04T08:45:17.719Z,36.83
2023-04-04T08:46:17.980Z,36.39
2023-04-04T08:47:18.325Z,36.17
2023-04-04T08:48:18.640Z,35.89
2023-04-04T08:49:19.766Z,35.98
2023-04-04T08:50:20.465Z,35.86
2023-04-04T08:51:19.419Z,34.99
2023-04-04T08:52:19.703Z,34.57
2023-04-04T08:53:20.007Z,34.14
2023-04-04T08:54:21.176Z,33.75
2023-04-04T08:55:20.460Z,34.12
2023-04-04T08:56:21.191Z,34.97
2023-04-04T08:57:21.176Z,35.46
2023-04-04T08:58:21.888Z,34.82
2023-04-04T08:59:22.129Z,34.60
2023-04-04T09:00:22.754Z,34.35
2023-04-04T09:01:22.191Z,33.53
2023-04-04T09:02:22.516Z,33.87
2023-04-04T09:03:22.863Z,34.11
2023-04-04T09:04:22.976Z,34.01
2023-04-04T09:05:23.302Z,35.83
2023-04-04T09:06:23.759Z,36.44
2023-04-04T09:07:24.160Z,36.85
2023-04-04T09:08:29.801Z,36.43
2023-04-04T09:09:24.491Z,35.88
2023-04-04T09:10:24.858Z,35.22
2023-04-04T09:11:24.964Z,34.48
2023-04-04T09:12:25.243Z,34.60
2023-04-04T09:13:25.535Z,34.52
2023-04-04T09:14:25.847Z,34.30
2023-04-04T09:15:26.238Z,33.97
2023-04-04T09:16:26.348Z,33.65
2023-04-04T09:17:26.701Z,33.53
2023-04-04T09:18:27.277Z,33.00
2023-04-04T09:19:27.235Z,33.21
2023-04-04T09:20:28.838Z,33.21
2023-04-04T09:21:27.737Z,32.48
2023-04-04T09:22:28.015Z,32.46
2023-04-04T09:23:28.336Z,32.06
2023-04-04T09:24:29.640Z,31.76
2023-04-04T09:25:28.759Z,32.54
2023-04-04T09:26:29.058Z,33.81
2023-04-04T09:27:29.312Z,34.63
2023-04-04T09:28:29.648Z,34.07
2023-04-04T09:29:30.026Z,33.43
2023-04-04T09:30:30.069Z,32.50
2023-04-04T09:31:30.784Z,32.48
2023-04-04T09:32:30.820Z,32.73
2023-04-04T09:33:30.971Z,33.54
2023-04-04T09:34:31.216Z,32.78
2023-04-04T09:35:31.694Z,32.65
2023-04-04T09:36:31.768Z,31.89
2023-04-04T09:37:31.981Z,30.84
2023-04-04T09:38:32.190Z,30.11
2023-04-04T09:39:32.582Z,29.68
2023-04-04T09:40:32.880Z,29.07
2023-04-04T09:41:33.155Z,29.26
2023-04-04T09:42:33.363Z,28.63
2023-04-04T09:43:35.119Z,28.23
2023-04-04T09:44:33.880Z,28.20
2023-04-04T09:45:34.189Z,27.58
2023-04-04T09:46:34.547Z,27.47
2023-04-04T09:47:34.829Z,26.97
2023-04-04T09:48:35.212Z,26.95
2023-04-04T09:49:35.269Z,27.37
2023-04-04T09:50:35.649Z,26.98
2023-04-04T09:51:35.846Z,28.25
2023-04-04T09:52:36.063Z,29.23
2023-04-04T09:53:36.321Z,30.03
2023-04-04T09:55:36.859Z,29.05
2023-04-04T09:56:37.205Z,28.31
2023-04-04T09:57:37.456Z,27.79
2023-04-04T09:58:40.438Z,27.37
2023-04-04T09:59:39.038Z,27.47
2023-04-04T10:00:38.442Z,27.36
2023-04-04T10:01:38.655Z,27.25
2023-04-04T10:02:38.776Z,27.37
2023-04-04T10:03:39.216Z,27.39
2023-04-04T10:04:39.299Z,27.92
2023-04-04T10:05:39.763Z,28.87
2023-04-04T10:06:39.954Z,28.63
2023-04-04T10:07:40.250Z,28.04
2023-04-04T10:08:40.507Z,29.33
2023-04-04T10:09:40.764Z,29.91
2023-04-04T10:10:41.245Z,29.60
2023-04-04T10:11:41.397Z,29.26
2023-04-04T10:12:41.720Z,28.11
2023-04-04T10:13:42.375Z,27.67
2023-04-04T10:14:42.298Z,26.86
2023-04-04T10:15:42.566Z,27.67
2023-04-04T10:16:42.770Z,27.15
2023-04-04T10:17:43.089Z,27.04
2023-04-04T10:18:43.330Z,26.71
2023-04-04T10:19:44.087Z,26.38
2023-04-04T10:20:43.866Z,25.75
2023-04-04T10:21:44.639Z,25.34
2023-04-04T10:22:45.037Z,25.46
2023-04-04T10:23:45.243Z,25.47
2023-04-04T10:24:45.142Z,25.17
2023-04-04T10:25:45.326Z,25.99
2023-04-04T10:26:45.576Z,25.87
2023-04-04T10:27:45.879Z,25.46
2023-04-04T10:28:46.136Z,25.87
2023-04-04T10:29:46.391Z,25.84
2023-04-04T10:30:59.264Z,25.32
2023-04-04T10:31:47.930Z,24.72
2023-04-04T10:32:47.218Z,24.00
2023-04-04T10:33:47.490Z,24.32
2023-04-04T10:34:47.720Z,25.49
2023-04-04T10:35:48.056Z,25.80
2023-04-04T10:36:48.261Z,25.88
2023-04-04T10:37:48.537Z,25.78
2023-04-04T10:38:48.781Z,25.36
2023-04-04T10:39:48.990Z,24.74
2023-04-04T10:40:49.264Z,24.54
2023-04-04T10:41:49.685Z,25.05
2023-04-04T10:42:49.987Z,24.75
2023-04-04T10:43:50.091Z,24.76
2023-04-04T10:44:50.415Z,24.48
2023-04-04T10:45:50.644Z,25.09
2023-04-04T10:46:50.933Z,24.96
2023-04-04T10:47:51.179Z,24.74
2023-04-04T10:48:51.363Z,24.01
2023-04-04T10:49:51.687Z,23.62
2023-04-04T10:50:52.044Z,24.05
2023-04-04T10:51:56.184Z,25.95
2023-04-04T10:52:52.555Z,26.87
2023-04-04T10:53:52.732Z,26.75
2023-04-04T10:54:53.122Z,26.65
2023-04-04T10:55:53.332Z,26.84
2023-04-04T10:56:53.564Z,26.03
2023-04-04T10:57:54.328Z,25.73
2023-04-04T10:58:55.046Z,26.12
2023-04-04T10:59:54.388Z,25.68
2023-04-04T11:00:54.887Z,25.17
2023-04-04T11:01:54.911Z,25.05
2023-04-04T11:02:55.224Z,25.21
2023-04-04T11:03:55.480Z,26.65
2023-04-04T11:04:55.687Z,26.01
2023-04-04T11:05:55.953Z,26.20
2023-04-04T11:06:56.197Z,26.19
2023-04-04T11:08:07.414Z,26.38
2023-04-04T11:08:57.830Z,26.18
2023-04-04T11:09:57.943Z,25.84
2023-04-04T11:10:57.325Z,25.43
2023-04-04T11:11:58.053Z,25.37
2023-04-04T11:13:09.569Z,26.65
2023-04-04T11:14:00.020Z,26.76
2023-04-04T11:14:58.407Z,27.05
2023-04-04T11:15:58.684Z,26.97
2023-04-04T11:17:00.005Z,27.34
2023-04-04T11:17:59.274Z,27.42
2023-04-04T11:18:59.474Z,26.67
2023-04-04T11:19:59.832Z,25.74
2023-04-04T11:21:00.046Z,25.12
2023-04-04T11:22:00.298Z,25.04
2023-04-04T11:23:00.504Z,25.45
2023-04-04T11:24:00.882Z,25.22
2023-04-04T11:25:01.135Z,24.93
2023-04-04T11:26:01.533Z,25.18
2023-04-04T11:27:01.797Z,25.98
2023-04-04T11:28:02.218Z,26.95
2023-04-04T11:29:02.461Z,27.43
2023-04-04T11:30:02.936Z,26.47
2023-04-04T11:31:02.874Z,25.34
2023-04-04T11:32:03.254Z,25.54
2023-04-04T11:33:06.980Z,25.29
2023-04-04T11:34:03.691Z,25.82
2023-04-04T11:35:03.999Z,26.66
2023-04-04T11:36:08.242Z,27.08
2023-04-04T11:37:04.561Z,26.84
2023-04-04T11:38:04.756Z,26.59
2023-04-04T11:39:06.309Z,26.38
2023-04-04T11:40:05.391Z,25.87
2023-04-04T11:41:05.650Z,24.92
2023-04-04T11:42:05.962Z,24.63
2023-04-04T11:43:06.201Z,25.02
2023-04-04T11:44:06.406Z,24.59
2023-04-04T11:45:06.765Z,24.49
2023-04-04T11:46:07.021Z,24.28
2023-04-04T11:47:07.351Z,23.85
2023-04-04T11:48:07.675Z,24.04
2023-04-04T11:49:08.022Z,23.84
2023-04-04T11:50:08.343Z,23.75
2023-04-04T11:51:08.383Z,23.99
2023-04-04T11:52:08.708Z,24.38
2023-04-04T11:53:08.993Z,24.28
2023-04-04T11:54:09.217Z,23.99
2023-04-04T11:55:09.647Z,24.39
2023-04-04T11:56:09.732Z,24.18
2023-04-04T11:57:10.075Z,24.39
2023-04-04T11:58:12.813Z,24.58
2023-04-04T11:59:11.767Z,24.57
2023-04-04T12:00:10.906Z,23.75
2023-04-04T12:01:11.232Z,23.89
2023-04-04T12:02:11.436Z,24.62
2023-04-04T12:03:11.824Z,25.02
2023-04-04T12:04:12.008Z,25.54
2023-04-04T12:05:12.230Z,25.41
2023-04-04T12:06:12.535Z,25.10
2023-04-04T12:07:12.825Z,24.99
2023-04-04T12:08:13.072Z,24.69
2023-04-04T12:09:13.573Z,24.79
2023-04-04T12:10:13.777Z,24.51
2023-04-04T12:11:14.001Z,24.92
2023-04-04T12:12:14.070Z,24.51
2023-04-04T12:13:14.323Z,24.29
2023-04-04T12:14:14.686Z,24.48
2023-04-04T12:15:17.754Z,24.38
2023-04-04T12:16:15.339Z,24.77
2023-04-04T12:17:15.960Z,24.24
2023-04-04T12:18:15.899Z,24.05
2023-04-04T12:19:16.173Z,23.74
2023-04-04T12:20:16.437Z,23.63
2023-04-04T12:21:16.728Z,23.97
2023-04-04T12:22:17.155Z,24.07
2023-04-04T12:23:17.398Z,24.17
2023-04-04T12:24:17.740Z,24.27
2023-04-04T12:25:17.732Z,24.17
2023-04-04T12:26:17.931Z,24.08
2023-04-04T12:27:18.316Z,24.39
2023-04-04T12:28:18.578Z,24.93
2023-04-04T12:29:19.126Z,25.35
2023-04-04T12:30:19.071Z,25.78
2023-04-04T12:31:19.828Z,26.51
2023-04-04T12:32:19.693Z,26.95
2023-04-04T12:33:19.989Z,27.79
2023-04-04T12:34:20.285Z,28.63
2023-04-04T12:35:20.590Z,29.16
2023-04-04T12:36:20.966Z,29.38
2023-04-04T12:37:21.407Z,29.79
2023-04-04T12:38:21.567Z,30.41
2023-04-04T12:39:21.731Z,30.83
2023-04-04T12:40:21.944Z,31.25
2023-04-04T12:41:22.194Z,31.99
2023-04-04T12:42:22.533Z,32.21
2023-04-04T12:43:22.817Z,32.94
2023-04-04T12:44:23.032Z,32.24
2023-04-04T12:45:23.406Z,32.89
2023-04-04T12:46:23.889Z,33.41
2023-04-04T12:47:24.432Z,33.82
2023-04-04T12:48:26.486Z,34.03
2023-04-04T12:49:24.814Z,34.22
2023-04-04T12:50:24.844Z,33.89
2023-04-04T12:51:25.134Z,33.38
2023-04-04T12:52:25.538Z,34.09
2023-04-04T12:53:29.453Z,33.98
2023-04-04T12:54:26.086Z,34.08
2023-04-04T12:55:26.397Z,33.65
2023-04-04T12:56:26.609Z,33.57
2023-04-04T12:57:26.857Z,33.57